sensor_id;sensor_type;location;lat;lon;timestamp;pressure;altitude;pressure_sealevel;temperature;humidity
80682;BME280;70045;40.200;44.582;2023-07-02T00:00:18;86174.00;;;17.39;43.16
80682;BME280;70045;40.200;44.582;2023-07-02T00:02:43;86182.09;;;17.26;43.65
80682;BME280;70045;40.200;44.582;2023-07-02T00:05:08;86183.28;;;17.16;42.42
80682;BME280;70045;40.200;44.582;2023-07-02T00:07:36;86187.41;;;17.07;43.48
80682;BME280;70045;40.200;44.582;2023-07-02T00:10:02;86178.84;;;16.98;44.21
80682;BME280;70045;40.200;44.582;2023-07-02T00:12:27;86187.72;;;17.00;43.38
80682;BME280;70045;40.200;44.582;2023-07-02T00:14:53;86191.50;;;16.99;43.35
80682;BME280;70045;40.200;44.582;2023-07-02T00:17:19;86197.06;;;16.92;43.49
80682;BME280;70045;40.200;44.582;2023-07-02T00:19:47;86190.53;;;16.87;44.87
80682;BME280;70045;40.200;44.582;2023-07-02T00:22:13;86187.75;;;16.82;43.11
80682;BME280;70045;40.200;44.582;2023-07-02T00:24:38;86189.22;;;16.83;43.47
80682;BME280;70045;40.200;44.582;2023-07-02T00:27:04;86186.91;;;16.75;44.59
80682;BME280;70045;40.200;44.582;2023-07-02T00:29:29;86197.66;;;16.78;43.23
80682;BME280;70045;40.200;44.582;2023-07-02T00:31:57;86193.31;;;16.74;44.07
80682;BME280;70045;40.200;44.582;2023-07-02T00:34:23;86196.19;;;16.76;45.24
80682;BME280;70045;40.200;44.582;2023-07-02T00:36:48;86189.84;;;16.68;44.65
80682;BME280;70045;40.200;44.582;2023-07-02T00:39:14;86196.78;;;16.81;43.27
80682;BME280;70045;40.200;44.582;2023-07-02T00:41:39;86197.09;;;16.73;44.93
80682;BME280;70045;40.200;44.582;2023-07-02T00:44:07;86205.25;;;16.66;45.41
80682;BME280;70045;40.200;44.582;2023-07-02T00:46:33;86208.00;;;16.63;45.52
80682;BME280;70045;40.200;44.582;2023-07-02T00:48:58;86206.16;;;16.63;44.53
80682;BME280;70045;40.200;44.582;2023-07-02T00:51:26;86201.91;;;16.66;44.97
80682;BME280;70045;40.200;44.582;2023-07-02T00:53:54;86201.03;;;16.69;44.59
80682;BME280;70045;40.200;44.582;2023-07-02T00:56:24;86206.13;;;16.72;45.08
80682;BME280;70045;40.200;44.582;2023-07-02T00:58:52;86204.38;;;16.69;44.78
80682;BME280;70045;40.200;44.582;2023-07-02T01:01:20;86207.56;;;16.73;44.88
80682;BME280;70045;40.200;44.582;2023-07-02T01:04:03;86210.19;;;16.73;44.91
80682;BME280;70045;40.200;44.582;2023-07-02T01:06:33;86203.38;;;16.67;44.79
80682;BME280;70045;40.200;44.582;2023-07-02T01:09:02;86211.94;;;16.67;43.68
80682;BME280;70045;40.200;44.582;2023-07-02T01:11:31;86215.16;;;16.62;44.54
80682;BME280;70045;40.200;44.582;2023-07-02T01:14:04;86215.75;;;16.57;44.54
80682;BME280;70045;40.200;44.582;2023-07-02T01:16:31;86211.84;;;16.43;46.30
80682;BME280;70045;40.200;44.582;2023-07-02T01:19:02;86215.59;;;16.42;45.56
80682;BME280;70045;40.200;44.582;2023-07-02T01:21:29;86218.84;;;16.37;45.15
80682;BME280;70045;40.200;44.582;2023-07-02T01:23:55;86204.72;;;16.34;45.64
80682;BME280;70045;40.200;44.582;2023-07-02T01:26:20;86213.28;;;16.35;45.18
80682;BME280;70045;40.200;44.582;2023-07-02T01:28:46;86223.03;;;16.44;45.32
80682;BME280;70045;40.200;44.582;2023-07-02T01:31:14;86219.38;;;16.50;46.14
80682;BME280;70045;40.200;44.582;2023-07-02T01:33:40;86220.13;;;16.51;46.09
80682;BME280;70045;40.200;44.582;2023-07-02T01:36:05;86219.50;;;16.56;45.76
80682;BME280;70045;40.200;44.582;2023-07-02T01:38:31;86220.09;;;16.60;44.75
80682;BME280;70045;40.200;44.582;2023-07-02T01:40:56;86220.81;;;16.61;44.64
80682;BME280;70045;40.200;44.582;2023-07-02T01:43:24;86216.59;;;16.63;45.27
80682;BME280;70045;40.200;44.582;2023-07-02T01:45:50;86225.31;;;16.69;44.69
80682;BME280;70045;40.200;44.582;2023-07-02T01:48:15;86229.22;;;16.74;44.10
80682;BME280;70045;40.200;44.582;2023-07-02T01:50:40;86230.50;;;16.79;44.28
80682;BME280;70045;40.200;44.582;2023-07-02T01:53:06;86220.03;;;16.79;44.18
80682;BME280;70045;40.200;44.582;2023-07-02T01:55:34;86228.78;;;16.85;44.76
80682;BME280;70045;40.200;44.582;2023-07-02T01:57:59;86225.31;;;16.88;44.24
80682;BME280;70045;40.200;44.582;2023-07-02T02:00:25;86231.53;;;16.90;44.27
80682;BME280;70045;40.200;44.582;2023-07-02T02:02:50;86224.53;;;16.97;44.15
80682;BME280;70045;40.200;44.582;2023-07-02T02:05:15;86228.00;;;17.03;43.81
80682;BME280;70045;40.200;44.582;2023-07-02T02:07:44;86228.16;;;17.08;43.84
80682;BME280;70045;40.200;44.582;2023-07-02T02:10:09;86222.59;;;17.16;43.15
80682;BME280;70045;40.200;44.582;2023-07-02T02:12:35;86223.41;;;17.22;43.04
80682;BME280;70045;40.200;44.582;2023-07-02T02:15:00;86232.47;;;17.21;43.36
80682;BME280;70045;40.200;44.582;2023-07-02T02:17:26;86230.44;;;17.16;43.68
80682;BME280;70045;40.200;44.582;2023-07-02T02:19:54;86229.56;;;17.19;43.48
80682;BME280;70045;40.200;44.582;2023-07-02T02:22:19;86229.56;;;17.19;43.06
80682;BME280;70045;40.200;44.582;2023-07-02T02:24:44;86226.78;;;17.22;43.21
80682;BME280;70045;40.200;44.582;2023-07-02T02:27:10;86227.78;;;17.25;43.09
80682;BME280;70045;40.200;44.582;2023-07-02T02:29:35;86233.28;;;17.36;43.18
80682;BME280;70045;40.200;44.582;2023-07-02T02:32:04;86236.56;;;17.46;43.10
80682;BME280;70045;40.200;44.582;2023-07-02T02:34:29;86237.69;;;17.54;43.04
80682;BME280;70045;40.200;44.582;2023-07-02T02:36:54;86238.09;;;17.62;42.76
80682;BME280;70045;40.200;44.582;2023-07-02T02:39:20;86235.03;;;17.63;43.29
80682;BME280;70045;40.200;44.582;2023-07-02T02:41:45;86244.41;;;17.79;42.63
80682;BME280;70045;40.200;44.582;2023-07-02T02:44:13;86241.75;;;17.88;43.03
80682;BME280;70045;40.200;44.582;2023-07-02T02:46:39;86243.16;;;17.99;42.64
80682;BME280;70045;40.200;44.582;2023-07-02T02:49:04;86254.03;;;18.06;42.45
80682;BME280;70045;40.200;44.582;2023-07-02T02:51:29;86253.13;;;18.10;42.52
80682;BME280;70045;40.200;44.582;2023-07-02T02:53:55;86254.44;;;18.14;42.51
80682;BME280;70045;40.200;44.582;2023-07-02T02:56:23;86256.97;;;18.23;42.53
80682;BME280;70045;40.200;44.582;2023-07-02T02:58:48;86261.00;;;18.34;42.07
80682;BME280;70045;40.200;44.582;2023-07-02T03:01:14;86261.19;;;18.45;42.04
80682;BME280;70045;40.200;44.582;2023-07-02T03:03:40;86254.16;;;18.51;41.98
80682;BME280;70045;40.200;44.582;2023-07-02T03:06:05;86260.38;;;18.54;41.62
80682;BME280;70045;40.200;44.582;2023-07-02T03:08:34;86256.06;;;18.66;41.87
80682;BME280;70045;40.200;44.582;2023-07-02T03:10:59;86237.88;;;18.62;42.42
80682;BME280;70045;40.200;44.582;2023-07-02T03:13:24;86252.41;;;18.87;41.71
80682;BME280;70045;40.200;44.582;2023-07-02T03:15:50;86259.47;;;18.96;41.13
80682;BME280;70045;40.200;44.582;2023-07-02T03:18:15;86252.22;;;19.06;40.76
80682;BME280;70045;40.200;44.582;2023-07-02T03:20:43;86248.06;;;19.14;39.60
80682;BME280;70045;40.200;44.582;2023-07-02T03:23:09;86254.41;;;19.22;40.09
80682;BME280;70045;40.200;44.582;2023-07-02T03:25:34;86255.94;;;19.29;40.21
80682;BME280;70045;40.200;44.582;2023-07-02T03:27:59;86267.06;;;19.38;39.76
80682;BME280;70045;40.200;44.582;2023-07-02T03:30:25;86256.16;;;19.46;39.38
80682;BME280;70045;40.200;44.582;2023-07-02T03:32:53;86250.72;;;19.49;38.88
80682;BME280;70045;40.200;44.582;2023-07-02T03:35:18;86241.66;;;19.50;39.26
80682;BME280;70045;40.200;44.582;2023-07-02T03:37:44;86256.09;;;19.55;39.23
80682;BME280;70045;40.200;44.582;2023-07-02T03:40:09;86243.47;;;19.59;39.24
80682;BME280;70045;40.200;44.582;2023-07-02T03:42:35;86254.16;;;19.70;38.50
80682;BME280;70045;40.200;44.582;2023-07-02T03:45:03;86257.94;;;19.69;39.10
80682;BME280;70045;40.200;44.582;2023-07-02T03:47:29;86255.31;;;19.69;39.33
80682;BME280;70045;40.200;44.582;2023-07-02T03:49:54;86255.06;;;19.67;39.46
80682;BME280;70045;40.200;44.582;2023-07-02T03:52:19;86257.03;;;19.72;39.08
80682;BME280;70045;40.200;44.582;2023-07-02T03:54:45;86270.19;;;19.72;38.97
80682;BME280;70045;40.200;44.582;2023-07-02T03:57:14;86253.97;;;19.74;39.35
80682;BME280;70045;40.200;44.582;2023-07-02T03:59:39;86266.38;;;19.88;39.03
80682;BME280;70045;40.200;44.582;2023-07-02T04:02:05;86270.25;;;19.93;39.00
80682;BME280;70045;40.200;44.582;2023-07-02T04:04:30;86271.84;;;20.05;39.17
80682;BME280;70045;40.200;44.582;2023-07-02T04:06:55;86271.59;;;20.24;38.22
80682;BME280;70045;40.200;44.582;2023-07-02T04:09:23;86272.91;;;20.34;38.50
80682;BME280;70045;40.200;44.582;2023-07-02T04:11:49;86273.03;;;20.45;38.57
80682;BME280;70045;40.200;44.582;2023-07-02T04:14:14;86261.84;;;20.50;38.06
80682;BME280;70045;40.200;44.582;2023-07-02T04:16:40;86270.69;;;20.68;37.81
80682;BME280;70045;40.200;44.582;2023-07-02T04:19:05;86269.47;;;20.69;37.61
80682;BME280;70045;40.200;44.582;2023-07-02T04:21:33;86270.03;;;20.73;37.40
80682;BME280;70045;40.200;44.582;2023-07-02T04:23:58;86278.94;;;20.81;37.51
80682;BME280;70045;40.200;44.582;2023-07-02T04:26:24;86282.38;;;20.87;37.30
80682;BME280;70045;40.200;44.582;2023-07-02T04:28:49;86278.09;;;20.90;37.23
80682;BME280;70045;40.200;44.582;2023-07-02T04:31:15;86276.19;;;20.91;37.03
80682;BME280;70045;40.200;44.582;2023-07-02T04:33:43;86280.84;;;21.01;37.06
80682;BME280;70045;40.200;44.582;2023-07-02T04:36:08;86283.50;;;21.07;37.10
80682;BME280;70045;40.200;44.582;2023-07-02T04:38:34;86288.66;;;21.16;36.11
80682;BME280;70045;40.200;44.582;2023-07-02T04:40:59;86285.47;;;21.12;36.00
80682;BME280;70045;40.200;44.582;2023-07-02T04:43:24;86291.28;;;21.16;36.51
80682;BME280;70045;40.200;44.582;2023-07-02T04:45:52;86284.19;;;21.28;36.22
80682;BME280;70045;40.200;44.582;2023-07-02T04:48:18;86295.69;;;21.25;36.27
80682;BME280;70045;40.200;44.582;2023-07-02T04:50:43;86299.53;;;21.30;35.81
80682;BME280;70045;40.200;44.582;2023-07-02T04:53:08;86293.09;;;21.31;35.97
80682;BME280;70045;40.200;44.582;2023-07-02T04:55:34;86283.72;;;21.30;36.52
80682;BME280;70045;40.200;44.582;2023-07-02T04:58:02;86293.72;;;21.46;36.00
80682;BME280;70045;40.200;44.582;2023-07-02T05:00:27;86291.38;;;21.54;35.48
80682;BME280;70045;40.200;44.582;2023-07-02T05:02:53;86275.25;;;21.46;35.85
80682;BME280;70045;40.200;44.582;2023-07-02T05:05:18;86292.19;;;21.66;35.54
80682;BME280;70045;40.200;44.582;2023-07-02T05:07:44;86292.69;;;21.70;35.39
80682;BME280;70045;40.200;44.582;2023-07-02T05:10:12;86286.47;;;21.73;35.35
80682;BME280;70045;40.200;44.582;2023-07-02T05:12:37;86283.41;;;21.80;35.58
80682;BME280;70045;40.200;44.582;2023-07-02T05:15:03;86286.13;;;21.91;35.38
80682;BME280;70045;40.200;44.582;2023-07-02T05:17:28;86289.25;;;21.90;34.72
80682;BME280;70045;40.200;44.582;2023-07-02T05:19:54;86292.16;;;21.97;34.21
80682;BME280;70045;40.200;44.582;2023-07-02T05:22:22;86284.75;;;22.02;34.26
80682;BME280;70045;40.200;44.582;2023-07-02T05:24:48;86283.59;;;22.08;33.48
80682;BME280;70045;40.200;44.582;2023-07-02T05:27:13;86288.66;;;22.12;33.88
80682;BME280;70045;40.200;44.582;2023-07-02T05:29:38;86294.00;;;22.23;34.16
80682;BME280;70045;40.200;44.582;2023-07-02T05:32:04;86290.72;;;22.34;33.95
80682;BME280;70045;40.200;44.582;2023-07-02T05:34:32;86293.19;;;22.49;33.58
80682;BME280;70045;40.200;44.582;2023-07-02T05:36:58;86288.84;;;22.46;33.23
80682;BME280;70045;40.200;44.582;2023-07-02T05:39:23;86288.22;;;22.62;33.39
80682;BME280;70045;40.200;44.582;2023-07-02T05:41:48;86295.00;;;22.80;33.49
80682;BME280;70045;40.200;44.582;2023-07-02T05:44:14;86291.41;;;22.78;33.40
80682;BME280;70045;40.200;44.582;2023-07-02T05:46:42;86296.94;;;22.80;32.95
80682;BME280;70045;40.200;44.582;2023-07-02T05:49:08;86296.22;;;22.85;32.92
80682;BME280;70045;40.200;44.582;2023-07-02T05:51:33;86293.84;;;22.98;33.01
80682;BME280;70045;40.200;44.582;2023-07-02T05:53:58;86291.94;;;23.04;32.94
80682;BME280;70045;40.200;44.582;2023-07-02T05:56:24;86294.59;;;23.04;32.43
80682;BME280;70045;40.200;44.582;2023-07-02T05:58:52;86298.50;;;23.09;32.14
80682;BME280;70045;40.200;44.582;2023-07-02T06:01:17;86305.22;;;23.16;32.53
80682;BME280;70045;40.200;44.582;2023-07-02T06:03:43;86294.63;;;23.10;32.31
80682;BME280;70045;40.200;44.582;2023-07-02T06:06:08;86298.25;;;23.18;32.35
80682;BME280;70045;40.200;44.582;2023-07-02T06:08:33;86301.38;;;23.22;32.59
80682;BME280;70045;40.200;44.582;2023-07-02T06:11:02;86307.41;;;23.28;31.78
80682;BME280;70045;40.200;44.582;2023-07-02T06:13:27;86304.50;;;23.21;31.50
80682;BME280;70045;40.200;44.582;2023-07-02T06:15:52;86299.97;;;23.27;32.05
80682;BME280;70045;40.200;44.582;2023-07-02T06:18:18;86298.78;;;23.28;32.03
80682;BME280;70045;40.200;44.582;2023-07-02T06:20:43;86298.78;;;23.39;31.95
80682;BME280;70045;40.200;44.582;2023-07-02T06:23:12;86304.81;;;23.51;31.71
80682;BME280;70045;40.200;44.582;2023-07-02T06:25:37;86312.03;;;23.50;31.96
80682;BME280;70045;40.200;44.582;2023-07-02T06:28:02;86294.44;;;23.36;32.32
80682;BME280;70045;40.200;44.582;2023-07-02T06:30:28;86301.66;;;23.41;31.80
80682;BME280;70045;40.200;44.582;2023-07-02T06:32:54;86296.13;;;23.34;31.87
80682;BME280;70045;40.200;44.582;2023-07-02T06:35:22;86305.06;;;23.47;31.90
80682;BME280;70045;40.200;44.582;2023-07-02T06:37:48;86298.81;;;23.50;31.61
80682;BME280;70045;40.200;44.582;2023-07-02T06:40:13;86297.09;;;23.53;32.16
80682;BME280;70045;40.200;44.582;2023-07-02T06:42:40;86297.81;;;23.48;31.33
80682;BME280;70045;40.200;44.582;2023-07-02T06:45:06;86301.94;;;23.49;31.82
80682;BME280;70045;40.200;44.582;2023-07-02T06:47:35;86291.34;;;23.49;31.49
80682;BME280;70045;40.200;44.582;2023-07-02T06:50:00;86283.13;;;23.47;31.94
80682;BME280;70045;40.200;44.582;2023-07-02T06:52:25;86290.63;;;23.60;31.97
80682;BME280;70045;40.200;44.582;2023-07-02T06:54:51;86287.72;;;23.69;31.78
80682;BME280;70045;40.200;44.582;2023-07-02T06:57:16;86290.88;;;23.79;31.57
80682;BME280;70045;40.200;44.582;2023-07-02T06:59:44;86283.66;;;23.85;30.65
80682;BME280;70045;40.200;44.582;2023-07-02T07:02:10;86284.16;;;23.95;30.96
80682;BME280;70045;40.200;44.582;2023-07-02T07:04:35;86282.94;;;23.96;30.87
80682;BME280;70045;40.200;44.582;2023-07-02T07:07:01;86281.72;;;23.97;30.50
80682;BME280;70045;40.200;44.582;2023-07-02T07:09:26;86281.25;;;24.10;30.66
80682;BME280;70045;40.200;44.582;2023-07-02T07:11:55;86269.44;;;23.94;30.02
80682;BME280;70045;40.200;44.582;2023-07-02T07:14:20;86279.06;;;24.02;30.61
80682;BME280;70045;40.200;44.582;2023-07-02T07:16:45;86277.63;;;24.07;30.36
80682;BME280;70045;40.200;44.582;2023-07-02T07:19:11;86276.91;;;24.12;30.86
80682;BME280;70045;40.200;44.582;2023-07-02T07:21:36;86279.06;;;24.31;30.29
80682;BME280;70045;40.200;44.582;2023-07-02T07:24:05;86264.06;;;24.39;29.81
80682;BME280;70045;40.200;44.582;2023-07-02T07:26:30;86250.56;;;24.48;30.03
80682;BME280;70045;40.200;44.582;2023-07-02T07:28:56;86267.41;;;24.68;30.12
80682;BME280;70045;40.200;44.582;2023-07-02T07:31:21;86271.22;;;24.78;29.92
80682;BME280;70045;40.200;44.582;2023-07-02T07:33:47;86274.56;;;24.84;29.68
80682;BME280;70045;40.200;44.582;2023-07-02T07:36:15;86274.56;;;24.84;29.23
80682;BME280;70045;40.200;44.582;2023-07-02T07:38:40;86274.75;;;24.97;29.84
80682;BME280;70045;40.200;44.582;2023-07-02T07:41:08;86276.84;;;25.16;29.43
80682;BME280;70045;40.200;44.582;2023-07-02T07:43:33;86267.19;;;25.13;29.30
80682;BME280;70045;40.200;44.582;2023-07-02T07:45:59;86260.91;;;25.16;28.87
80682;BME280;70045;40.200;44.582;2023-07-02T07:48:27;86273.38;;;25.32;29.06
80682;BME280;70045;40.200;44.582;2023-07-02T07:50:52;86264.66;;;25.37;28.72
80682;BME280;70045;40.200;44.582;2023-07-02T07:53:18;86262.22;;;25.45;28.95
80682;BME280;70045;40.200;44.582;2023-07-02T07:55:43;86263.84;;;25.54;28.58
80682;BME280;70045;40.200;44.582;2023-07-02T07:58:09;86248.69;;;25.49;28.52
80682;BME280;70045;40.200;44.582;2023-07-02T08:00:37;86242.13;;;25.55;28.50
80682;BME280;70045;40.200;44.582;2023-07-02T08:03:02;86247.53;;;25.74;28.75
80682;BME280;70045;40.200;44.582;2023-07-02T08:05:28;86252.09;;;25.80;28.36
80682;BME280;70045;40.200;44.582;2023-07-02T08:07:53;86243.66;;;25.75;28.29
80682;BME280;70045;40.200;44.582;2023-07-02T08:10:19;86246.00;;;25.85;28.41
80682;BME280;70045;40.200;44.582;2023-07-02T08:12:47;86247.44;;;25.86;27.85
80682;BME280;70045;40.200;44.582;2023-07-02T08:15:12;86251.84;;;25.78;27.85
80682;BME280;70045;40.200;44.582;2023-07-02T08:17:38;86247.97;;;25.79;28.09
80682;BME280;70045;40.200;44.582;2023-07-02T08:20:03;86249.09;;;25.89;28.36
80682;BME280;70045;40.200;44.582;2023-07-02T08:22:30;86238.66;;;26.02;27.83
80682;BME280;70045;40.200;44.582;2023-07-02T08:24:58;86241.06;;;26.00;27.49
80682;BME280;70045;40.200;44.582;2023-07-02T08:27:23;86242.28;;;25.93;27.94
80682;BME280;70045;40.200;44.582;2023-07-02T08:29:49;86240.88;;;25.92;27.73
80682;BME280;70045;40.200;44.582;2023-07-02T08:32:15;86235.31;;;25.96;27.80
80682;BME280;70045;40.200;44.582;2023-07-02T08:34:41;86240.28;;;26.05;27.88
80682;BME280;70045;40.200;44.582;2023-07-02T08:37:09;86229.69;;;26.30;27.85
80682;BME280;70045;40.200;44.582;2023-07-02T08:39:34;86226.47;;;26.62;27.37
80682;BME280;70045;40.200;44.582;2023-07-02T08:42:00;86223.34;;;26.82;27.26
80682;BME280;70045;40.200;44.582;2023-07-02T08:44:26;86222.69;;;26.95;27.38
80682;BME280;70045;40.200;44.582;2023-07-02T08:46:52;86228.09;;;26.90;26.95
80682;BME280;70045;40.200;44.582;2023-07-02T08:49:20;86220.44;;;26.80;26.62
80682;BME280;70045;40.200;44.582;2023-07-02T08:51:46;86211.69;;;26.85;26.73
80682;BME280;70045;40.200;44.582;2023-07-02T08:54:12;86211.47;;;27.02;27.07
80682;BME280;70045;40.200;44.582;2023-07-02T08:56:38;86208.59;;;27.19;26.16
80682;BME280;70045;40.200;44.582;2023-07-02T08:59:06;86213.84;;;27.44;26.29
80682;BME280;70045;40.200;44.582;2023-07-02T09:01:53;86209.16;;;27.50;26.48
80682;BME280;70045;40.200;44.582;2023-07-02T09:04:23;86207.25;;;27.32;26.18
80682;BME280;70045;40.200;44.582;2023-07-02T09:06:50;86212.94;;;27.41;26.19
80682;BME280;70045;40.200;44.582;2023-07-02T09:09:16;86215.84;;;27.57;26.68
80682;BME280;70045;40.200;44.582;2023-07-02T09:11:51;86205.16;;;27.76;25.64
80682;BME280;70045;40.200;44.582;2023-07-02T09:14:30;86197.44;;;28.05;25.41
80682;BME280;70045;40.200;44.582;2023-07-02T09:17:06;86195.53;;;28.32;26.04
80682;BME280;70045;40.200;44.582;2023-07-02T09:19:33;86184.38;;;28.60;24.67
80682;BME280;70045;40.200;44.582;2023-07-02T09:22:01;86194.25;;;29.13;24.15
80682;BME280;70045;40.200;44.582;2023-07-02T09:24:29;86195.84;;;29.77;24.00
80682;BME280;70045;40.200;44.582;2023-07-02T09:26:57;86192.97;;;30.46;22.48
80682;BME280;70045;40.200;44.582;2023-07-02T09:29:33;86190.41;;;30.98;21.43
80682;BME280;70045;40.200;44.582;2023-07-02T09:32:00;86184.78;;;31.69;21.55
80682;BME280;70045;40.200;44.582;2023-07-02T09:34:33;86182.88;;;32.46;20.91
80682;BME280;70045;40.200;44.582;2023-07-02T09:37:00;86177.00;;;33.12;21.34
80682;BME280;70045;40.200;44.582;2023-07-02T09:39:31;86169.25;;;33.64;20.26
80682;BME280;70045;40.200;44.582;2023-07-02T09:42:01;86172.41;;;34.11;19.82
80682;BME280;70045;40.200;44.582;2023-07-02T09:44:33;86168.44;;;34.62;20.43
80682;BME280;70045;40.200;44.582;2023-07-02T09:47:08;86164.31;;;34.61;17.58
80682;BME280;70045;40.200;44.582;2023-07-02T09:49:40;86167.44;;;34.75;19.18
80682;BME280;70045;40.200;44.582;2023-07-02T09:52:10;86169.28;;;35.42;17.93
80682;BME280;70045;40.200;44.582;2023-07-02T09:54:38;86153.34;;;35.81;17.64
80682;BME280;70045;40.200;44.582;2023-07-02T09:57:04;86155.47;;;36.10;16.93
80682;BME280;70045;40.200;44.582;2023-07-02T09:59:30;86156.44;;;36.42;17.84
80682;BME280;70045;40.200;44.582;2023-07-02T10:01:56;86150.88;;;36.77;17.51
80682;BME280;70045;40.200;44.582;2023-07-02T10:04:22;86162.69;;;37.01;16.96
80682;BME280;70045;40.200;44.582;2023-07-02T10:06:55;86151.94;;;36.54;15.55
80682;BME280;70045;40.200;44.582;2023-07-02T10:09:35;86146.78;;;36.39;15.58
80682;BME280;70045;40.200;44.582;2023-07-02T10:12:01;86145.97;;;36.66;17.16
80682;BME280;70045;40.200;44.582;2023-07-02T10:14:26;86141.06;;;37.01;16.60
80682;BME280;70045;40.200;44.582;2023-07-02T10:16:55;86132.09;;;37.57;16.78
80682;BME280;70045;40.200;44.582;2023-07-02T10:19:21;86138.06;;;37.85;16.48
80682;BME280;70045;40.200;44.582;2023-07-02T10:22:08;86135.50;;;37.48;14.93
80682;BME280;70045;40.200;44.582;2023-07-02T10:24:33;86116.06;;;37.40;16.18
80682;BME280;70045;40.200;44.582;2023-07-02T10:27:02;86120.03;;;37.29;15.11
80682;BME280;70045;40.200;44.582;2023-07-02T10:29:28;86117.31;;;37.39;16.21
80682;BME280;70045;40.200;44.582;2023-07-02T10:31:55;86114.19;;;37.52;14.25
80682;BME280;70045;40.200;44.582;2023-07-02T10:34:33;86116.88;;;37.72;14.80
80682;BME280;70045;40.200;44.582;2023-07-02T10:37:05;86118.50;;;38.37;14.31
80682;BME280;70045;40.200;44.582;2023-07-02T10:39:31;86111.91;;;38.93;14.23
80682;BME280;70045;40.200;44.582;2023-07-02T10:42:06;86111.06;;;39.34;13.00
80682;BME280;70045;40.200;44.582;2023-07-02T10:44:32;86110.53;;;39.47;14.48
80682;BME280;70045;40.200;44.582;2023-07-02T10:46:58;86106.22;;;40.11;13.80
80682;BME280;70045;40.200;44.582;2023-07-02T10:49:31;86104.03;;;39.74;13.45
80682;BME280;70045;40.200;44.582;2023-07-02T10:52:01;86104.25;;;39.78;12.43
80682;BME280;70045;40.200;44.582;2023-07-02T10:54:45;86104.44;;;40.04;13.39
80682;BME280;70045;40.200;44.582;2023-07-02T10:57:12;86101.63;;;40.02;13.01
80682;BME280;70045;40.200;44.582;2023-07-02T10:59:41;86093.34;;;40.12;12.41
80682;BME280;70045;40.200;44.582;2023-07-02T11:02:07;86087.47;;;40.51;13.33
80682;BME280;70045;40.200;44.582;2023-07-02T11:04:33;86092.78;;;40.84;12.44
80682;BME280;70045;40.200;44.582;2023-07-02T11:07:02;86093.03;;;40.64;13.18
80682;BME280;70045;40.200;44.582;2023-07-02T11:09:27;86087.22;;;40.58;12.88
80682;BME280;70045;40.200;44.582;2023-07-02T11:11:58;86087.31;;;40.96;11.66
80682;BME280;70045;40.200;44.582;2023-07-02T11:14:33;86080.88;;;41.15;11.88
80682;BME280;70045;40.200;44.582;2023-07-02T11:17:02;86063.81;;;41.26;11.88
80682;BME280;70045;40.200;44.582;2023-07-02T11:19:27;86070.63;;;41.65;11.69
80682;BME280;70045;40.200;44.582;2023-07-02T11:21:55;86082.00;;;41.61;11.98
80682;BME280;70045;40.200;44.582;2023-07-02T11:24:27;86071.91;;;42.29;11.98
80682;BME280;70045;40.200;44.582;2023-07-02T11:26:53;86070.03;;;42.73;11.20
80682;BME280;70045;40.200;44.582;2023-07-02T11:29:18;86074.56;;;42.82;11.08
80682;BME280;70045;40.200;44.582;2023-07-02T11:31:44;86072.16;;;42.61;11.22
80682;BME280;70045;40.200;44.582;2023-07-02T11:34:13;86058.81;;;42.67;10.76
80682;BME280;70045;40.200;44.582;2023-07-02T11:36:42;86070.84;;;42.62;10.52
80682;BME280;70045;40.200;44.582;2023-07-02T11:39:07;86056.81;;;42.95;10.15
80682;BME280;70045;40.200;44.582;2023-07-02T11:41:37;86057.78;;;42.88;10.39
80682;BME280;70045;40.200;44.582;2023-07-02T11:44:02;86060.16;;;42.94;10.71
80682;BME280;70045;40.200;44.582;2023-07-02T11:46:28;86058.41;;;42.86;10.73
80682;BME280;70045;40.200;44.582;2023-07-02T11:48:56;86052.66;;;42.80;10.40
80682;BME280;70045;40.200;44.582;2023-07-02T11:51:22;86059.97;;;43.19;10.32
80682;BME280;70045;40.200;44.582;2023-07-02T11:53:47;86057.88;;;43.61;10.28
80682;BME280;70045;40.200;44.582;2023-07-02T11:56:13;86048.06;;;43.86;10.10
80682;BME280;70045;40.200;44.582;2023-07-02T11:58:39;86046.31;;;44.09;8.46
80682;BME280;70045;40.200;44.582;2023-07-02T12:01:07;86052.69;;;44.29;8.14
80682;BME280;70045;40.200;44.582;2023-07-02T12:03:33;86046.69;;;44.49;9.25
80682;BME280;70045;40.200;44.582;2023-07-02T12:05:58;86043.00;;;44.26;8.83
80682;BME280;70045;40.200;44.582;2023-07-02T12:08:23;86049.47;;;43.87;9.39
80682;BME280;70045;40.200;44.582;2023-07-02T12:10:49;86045.28;;;44.16;8.73
80682;BME280;70045;40.200;44.582;2023-07-02T12:13:17;86037.31;;;43.74;7.84
80682;BME280;70045;40.200;44.582;2023-07-02T12:15:42;86036.28;;;43.08;8.53
80682;BME280;70045;40.200;44.582;2023-07-02T12:18:11;86031.38;;;42.63;9.54
80682;BME280;70045;40.200;44.582;2023-07-02T12:20:37;86038.34;;;41.59;9.96
80682;BME280;70045;40.200;44.582;2023-07-02T12:23:02;86031.34;;;41.68;9.93
80682;BME280;70045;40.200;44.582;2023-07-02T12:25:30;86027.72;;;41.37;10.19
80682;BME280;70045;40.200;44.582;2023-07-02T12:27:56;86039.59;;;40.69;10.30
80682;BME280;70045;40.200;44.582;2023-07-02T12:30:21;86029.84;;;40.05;10.54
80682;BME280;70045;40.200;44.582;2023-07-02T12:32:47;86022.56;;;40.92;10.35
80682;BME280;70045;40.200;44.582;2023-07-02T12:35:12;86026.97;;;41.37;10.32
80682;BME280;70045;40.200;44.582;2023-07-02T12:37:49;86027.13;;;41.78;9.60
80682;BME280;70045;40.200;44.582;2023-07-02T12:40:16;86024.91;;;42.14;9.99
80682;BME280;70045;40.200;44.582;2023-07-02T12:42:43;86018.00;;;42.97;8.73
80682;BME280;70045;40.200;44.582;2023-07-02T12:45:09;86026.41;;;43.60;8.77
80682;BME280;70045;40.200;44.582;2023-07-02T12:47:35;86007.28;;;43.44;8.82